createdAt,value
2022-12-06T00:01:47.188Z,3.34
2022-12-06T00:04:17.778Z,3.34
2022-12-06T00:06:50.664Z,3.34
2022-12-06T00:09:22.724Z,3.33
2022-12-06T00:11:53.292Z,3.32
2022-12-06T00:14:22.672Z,3.31
2022-12-06T00:16:52.488Z,3.27
2022-12-06T00:19:24.540Z,3.22
2022-12-06T00:21:54.772Z,3.16
2022-12-06T00:24:24.168Z,3.11
2022-12-06T00:26:54.069Z,3.03
2022-12-06T00:29:25.188Z,2.96
2022-12-06T00:31:55.367Z,2.92
2022-12-06T00:34:25.884Z,2.87
2022-12-06T00:36:55.382Z,2.84
2022-12-06T00:39:25.267Z,2.81
2022-12-06T00:41:56.899Z,2.78
2022-12-06T00:44:26.157Z,2.73
2022-12-06T00:46:55.760Z,2.70
2022-12-06T00:49:25.564Z,2.66
2022-12-06T00:51:55.658Z,2.62
2022-12-06T00:54:25.904Z,2.60
2022-12-06T00:56:55.313Z,2.58
2022-12-06T00:59:24.723Z,2.56
2022-12-06T01:01:54.257Z,2.55
2022-12-06T01:04:24.438Z,2.56
2022-12-06T01:06:54.935Z,2.57
2022-12-06T01:09:25.267Z,2.57
2022-12-06T01:11:56.715Z,2.58
2022-12-06T01:14:27.026Z,2.57
2022-12-06T01:16:57.110Z,2.58
2022-12-06T01:19:27.779Z,2.59
2022-12-06T01:21:58.259Z,2.60
2022-12-06T01:24:28.365Z,2.60
2022-12-06T01:26:57.466Z,2.62
2022-12-06T01:29:29.072Z,2.64
2022-12-06T01:32:00.079Z,2.64
2022-12-06T01:34:31.038Z,2.65
2022-12-06T01:37:00.623Z,2.65
2022-12-06T01:39:29.878Z,2.64
2022-12-06T01:41:59.829Z,2.64
2022-12-06T01:44:51.178Z,2.65
2022-12-06T01:47:34.163Z,2.64
2022-12-06T01:50:27.741Z,2.63
2022-12-06T01:53:06.328Z,2.60
2022-12-06T01:55:40.923Z,2.60
2022-12-06T01:58:18.569Z,2.63
2022-12-06T02:00:48.708Z,2.63
2022-12-06T02:03:26.723Z,2.63
2022-12-06T02:05:58.564Z,2.65
2022-12-06T02:08:30.483Z,2.65
2022-12-06T02:11:02.652Z,2.64
2022-12-06T02:13:34.566Z,2.65
2022-12-06T02:16:23.905Z,2.67
2022-12-06T02:19:36.906Z,2.67
2022-12-06T02:22:15.216Z,2.68
2022-12-06T02:25:23.957Z,2.69
2022-12-06T02:28:22.144Z,2.70
2022-12-06T02:31:10.108Z,2.69
2022-12-06T02:33:49.618Z,2.68
2022-12-06T02:36:23.804Z,2.69
2022-12-06T02:39:01.228Z,2.70
2022-12-06T02:41:36.821Z,2.71
2022-12-06T02:44:17.217Z,2.71
2022-12-06T02:46:50.248Z,2.73
2022-12-06T02:49:23.922Z,2.73
2022-12-06T02:51:56.257Z,2.73
2022-12-06T02:54:27.661Z,2.72
2022-12-06T02:56:57.957Z,2.72
2022-12-06T02:59:28.160Z,2.72
2022-12-06T03:02:01.396Z,2.72
2022-12-06T03:04:47.569Z,2.72
2022-12-06T03:07:28.437Z,2.72
2022-12-06T03:10:05.352Z,2.73
2022-12-06T03:13:01.012Z,2.75
2022-12-06T03:15:53.728Z,2.76
2022-12-06T03:18:49.082Z,2.74
2022-12-06T03:21:26.931Z,2.69
2022-12-06T03:23:58.508Z,2.65
2022-12-06T03:26:33.320Z,2.58
2022-12-06T03:29:07.579Z,2.54
2022-12-06T03:31:41.981Z,2.50
2022-12-06T03:34:13.701Z,2.45
2022-12-06T03:36:46.005Z,2.39
2022-12-06T03:39:20.856Z,2.32
2022-12-06T03:41:55.813Z,2.28
2022-12-06T03:44:27.333Z,2.23
2022-12-06T03:47:08.330Z,2.18
2022-12-06T03:50:08.136Z,2.12
2022-12-06T03:52:39.489Z,2.06
2022-12-06T03:55:09.734Z,2.01
2022-12-06T03:57:40.540Z,1.97
2022-12-06T04:00:11.289Z,1.94
2022-12-06T04:02:44.409Z,1.90
2022-12-06T04:05:14.469Z,1.88
2022-12-06T04:07:44.319Z,1.86
2022-12-06T04:10:15.215Z,1.84
2022-12-06T04:13:03.230Z,1.83
2022-12-06T04:15:40.163Z,1.82
2022-12-06T04:18:15.121Z,1.79
2022-12-06T04:21:19.607Z,1.77
2022-12-06T04:23:51.618Z,1.73
2022-12-06T04:26:22.835Z,1.71
2022-12-06T04:29:12.994Z,1.68
2022-12-06T04:32:01.119Z,1.64
2022-12-06T04:34:49.896Z,1.62
2022-12-06T04:37:38.352Z,1.60
2022-12-06T04:40:08.233Z,1.58
2022-12-06T04:42:56.915Z,1.56
2022-12-06T04:45:25.794Z,1.52
2022-12-06T04:47:55.729Z,1.49
2022-12-06T04:50:25.109Z,1.47
2022-12-06T04:52:54.736Z,1.46
2022-12-06T04:55:24.487Z,1.45
2022-12-06T04:57:54.347Z,1.44
2022-12-06T05:00:23.654Z,1.44
2022-12-06T05:02:52.934Z,1.43
2022-12-06T05:05:21.734Z,1.46
2022-12-06T05:07:52.210Z,1.46
2022-12-06T05:10:22.004Z,1.48
2022-12-06T05:12:50.957Z,1.48
2022-12-06T05:15:21.394Z,1.47
2022-12-06T05:17:52.424Z,1.47
2022-12-06T05:20:21.722Z,1.47
2022-12-06T05:22:51.423Z,1.46
2022-12-06T05:25:20.537Z,1.46
2022-12-06T05:27:49.843Z,1.44
2022-12-06T05:30:19.582Z,1.42
2022-12-06T05:32:53.891Z,1.38
2022-12-06T05:35:25.718Z,1.33
2022-12-06T05:37:54.917Z,1.25
2022-12-06T05:40:23.612Z,1.19
2022-12-06T05:42:52.803Z,1.13
2022-12-06T05:45:21.906Z,1.08
2022-12-06T05:47:50.781Z,1.02
2022-12-06T05:50:19.875Z,0.97
2022-12-06T05:52:48.768Z,0.92
2022-12-06T05:55:17.863Z,0.88
2022-12-06T05:57:47.457Z,0.84
2022-12-06T06:00:18.892Z,0.80
2022-12-06T06:02:48.928Z,0.77
2022-12-06T06:05:18.240Z,0.76
2022-12-06T06:07:47.082Z,0.73
2022-12-06T06:10:19.372Z,0.71
2022-12-06T06:12:48.493Z,0.69
2022-12-06T06:15:18.193Z,0.69
2022-12-06T06:17:46.678Z,0.68
2022-12-06T06:20:16.090Z,0.68
2022-12-06T06:22:44.972Z,0.68
2022-12-06T06:25:14.172Z,0.70
2022-12-06T06:27:43.160Z,0.70
2022-12-06T06:30:13.706Z,0.71
2022-12-06T06:32:42.783Z,0.69
2022-12-06T06:35:12.082Z,0.66
2022-12-06T06:37:41.196Z,0.66
2022-12-06T06:40:11.849Z,0.67
2022-12-06T06:42:40.602Z,0.69
2022-12-06T06:45:10.525Z,0.72
2022-12-06T06:47:39.200Z,0.77
2022-12-06T06:50:09.327Z,0.85
2022-12-06T06:52:38.405Z,0.95
2022-12-06T06:55:08.119Z,1.08
2022-12-06T06:57:37.018Z,1.23
2022-12-06T07:00:07.216Z,1.44
2022-12-06T07:02:36.365Z,1.84
2022-12-06T07:05:05.942Z,2.30
2022-12-06T07:07:34.762Z,2.75
2022-12-06T07:10:04.836Z,3.12
2022-12-06T07:12:33.617Z,3.40
2022-12-06T07:15:02.624Z,3.64
2022-12-06T07:17:31.615Z,3.87
2022-12-06T07:20:00.850Z,4.15
2022-12-06T07:22:31.137Z,4.79
2022-12-06T07:24:59.827Z,5.58
2022-12-06T07:27:28.815Z,6.23
2022-12-06T07:29:57.811Z,6.58
2022-12-06T07:32:27.964Z,6.86
2022-12-06T07:34:57.015Z,7.13
2022-12-06T07:37:29.387Z,7.40
2022-12-06T07:39:58.490Z,7.74
2022-12-06T07:42:54.721Z,7.62
2022-12-06T07:45:23.719Z,7.45
2022-12-06T07:47:52.597Z,7.32
2022-12-06T07:50:23.536Z,7.38
2022-12-06T07:52:52.326Z,7.32
2022-12-06T07:55:21.834Z,7.31
2022-12-06T07:57:50.829Z,7.05
2022-12-06T08:00:20.318Z,6.83
2022-12-06T08:02:48.917Z,6.59
2022-12-06T08:05:18.739Z,6.37
2022-12-06T08:07:47.986Z,6.29
2022-12-06T08:10:16.919Z,6.31
2022-12-06T08:12:45.603Z,6.23
2022-12-06T08:15:15.623Z,6.21
2022-12-06T08:17:44.914Z,6.20
2022-12-06T08:20:13.810Z,6.18
2022-12-06T08:22:42.717Z,6.19
2022-12-06T08:25:11.792Z,6.16
2022-12-06T08:27:40.586Z,6.20
2022-12-06T08:30:09.694Z,6.25
2022-12-06T08:32:38.470Z,6.26
2022-12-06T08:35:07.460Z,6.23
2022-12-06T08:37:36.143Z,6.22
2022-12-06T08:40:05.688Z,6.25
2022-12-06T08:42:34.638Z,6.32
2022-12-06T08:45:04.151Z,6.36
2022-12-06T08:47:32.835Z,6.36
2022-12-06T08:50:01.912Z,6.39
2022-12-06T08:52:31.227Z,6.44
2022-12-06T08:55:00.129Z,6.47
2022-12-06T08:57:29.414Z,6.49
2022-12-06T08:59:58.600Z,6.49
2022-12-06T09:02:27.508Z,6.56
2022-12-06T09:04:56.471Z,6.60
2022-12-06T09:07:26.927Z,6.62
2022-12-06T09:09:55.811Z,6.59
2022-12-06T09:12:34.532Z,6.54
2022-12-06T09:15:04.550Z,6.53
2022-12-06T09:17:33.437Z,6.57
2022-12-06T09:20:06.089Z,6.63
2022-12-06T09:22:35.518Z,6.70
2022-12-06T09:25:04.476Z,6.75
2022-12-06T09:27:33.402Z,6.84
2022-12-06T09:30:02.584Z,6.92
2022-12-06T09:32:31.705Z,6.92
2022-12-06T09:35:01.012Z,6.95
2022-12-06T09:37:30.088Z,6.95
2022-12-06T09:40:13.126Z,6.97
2022-12-06T09:43:00.890Z,7.01
2022-12-06T09:45:40.691Z,7.03
2022-12-06T09:48:37.132Z,6.98
2022-12-06T09:51:18.200Z,6.97
2022-12-06T09:54:08.805Z,6.97
2022-12-06T09:56:48.039Z,6.97
2022-12-06T09:59:29.928Z,6.96
2022-12-06T10:02:26.412Z,6.96
2022-12-06T10:05:19.934Z,6.93
2022-12-06T10:08:03.691Z,6.88
2022-12-06T10:11:08.607Z,6.83
2022-12-06T10:14:14.568Z,6.71
2022-12-06T10:17:11.109Z,6.49
2022-12-06T10:20:11.652Z,6.38
2022-12-06T10:23:00.097Z,6.37
2022-12-06T10:25:42.282Z,6.45
2022-12-06T10:28:14.350Z,6.53
2022-12-06T10:30:56.280Z,6.51
2022-12-06T10:33:53.515Z,6.47
2022-12-06T10:36:53.221Z,6.48
2022-12-06T10:39:38.384Z,6.46
2022-12-06T10:42:24.493Z,6.50
2022-12-06T10:45:39.965Z,6.47
2022-12-06T10:48:20.023Z,6.38
2022-12-06T10:50:59.661Z,6.43
2022-12-06T10:53:35.516Z,6.46
2022-12-06T10:56:13.989Z,6.53
2022-12-06T10:58:49.569Z,6.62
2022-12-06T11:01:26.038Z,6.69
2022-12-06T11:04:20.446Z,6.70
2022-12-06T11:06:54.914Z,6.66
2022-12-06T11:09:43.782Z,6.66
2022-12-06T11:12:37.383Z,6.64
2022-12-06T11:15:26.543Z,6.63
2022-12-06T11:18:11.101Z,6.64
2022-12-06T11:20:47.159Z,6.66
2022-12-06T11:23:22.403Z,6.64
2022-12-06T11:26:12.287Z,6.62
2022-12-06T11:29:04.626Z,6.67
2022-12-06T11:31:41.968Z,6.70
2022-12-06T11:34:43.775Z,6.67
2022-12-06T11:37:18.159Z,6.66
2022-12-06T11:39:51.828Z,6.66
2022-12-06T11:42:27.556Z,6.65
2022-12-06T11:45:13.540Z,6.60
2022-12-06T11:47:43.273Z,6.55
2022-12-06T11:50:19.311Z,6.49
2022-12-06T11:53:23.112Z,6.44
2022-12-06T11:55:55.594Z,6.40
2022-12-06T11:58:27.449Z,6.35
2022-12-06T12:01:03.305Z,6.36
2022-12-06T12:03:35.297Z,6.30
2022-12-06T12:06:26.072Z,6.27
2022-12-06T12:09:06.426Z,6.24
2022-12-06T12:11:38.126Z,6.25
2022-12-06T12:14:31.034Z,6.29
2022-12-06T12:17:02.587Z,6.30
2022-12-06T12:19:52.371Z,6.27
2022-12-06T12:22:39.994Z,6.22
2022-12-06T12:25:28.306Z,6.22
2022-12-06T12:27:59.057Z,6.17
2022-12-06T12:30:31.710Z,6.19
2022-12-06T12:33:06.510Z,6.20
2022-12-06T12:35:41.356Z,6.19
2022-12-06T12:38:10.001Z,6.20
2022-12-06T12:40:47.896Z,6.12
2022-12-06T12:43:27.954Z,6.10
2022-12-06T12:46:05.031Z,6.10
2022-12-06T12:48:35.154Z,6.09
2022-12-06T12:51:21.549Z,6.10
2022-12-06T12:53:56.512Z,6.09
2022-12-06T12:56:26.610Z,6.05
2022-12-06T12:58:57.160Z,6.04
2022-12-06T13:01:25.812Z,6.08
2022-12-06T13:04:05.973Z,6.11
2022-12-06T13:06:54.645Z,6.06
2022-12-06T13:09:32.012Z,6.04
2022-12-06T13:12:07.606Z,6.04
2022-12-06T13:14:41.266Z,6.01
2022-12-06T13:17:13.695Z,5.94
2022-12-06T13:19:51.665Z,5.90
2022-12-06T13:22:27.709Z,5.89
2022-12-06T13:25:07.044Z,5.87
2022-12-06T13:27:42.907Z,5.85
2022-12-06T13:30:24.099Z,5.84
2022-12-06T13:32:59.718Z,5.85
2022-12-06T13:35:30.435Z,5.87
2022-12-06T13:38:26.102Z,5.89
2022-12-06T13:41:02.840Z,5.90
2022-12-06T13:43:35.087Z,5.91
2022-12-06T13:46:10.317Z,5.92
2022-12-06T13:48:52.160Z,5.93
2022-12-06T13:51:40.793Z,5.94
2022-12-06T13:54:13.067Z,5.93
2022-12-06T13:56:42.164Z,5.91
2022-12-06T13:59:15.457Z,5.90
2022-12-06T14:01:44.256Z,5.88
2022-12-06T14:09:41.453Z,5.82
2022-12-06T14:12:24.321Z,5.78
2022-12-06T14:15:01.637Z,5.76
2022-12-06T14:20:31.998Z,5.72
2022-12-06T14:23:00.762Z,5.75
2022-12-06T14:25:31.614Z,5.76
2022-12-06T14:28:07.061Z,5.70
2022-12-06T14:30:35.651Z,5.66
2022-12-06T14:33:22.955Z,5.63
2022-12-06T14:35:54.081Z,5.60
2022-12-06T14:38:29.746Z,5.56
2022-12-06T14:41:19.319Z,5.52
2022-12-06T14:43:48.514Z,5.47
2022-12-06T14:46:20.003Z,5.43
2022-12-06T14:49:07.087Z,5.38
2022-12-06T14:51:41.207Z,5.33
2022-12-06T14:54:19.198Z,5.30
2022-12-06T14:56:47.984Z,5.28
2022-12-06T14:59:38.964Z,5.24
2022-12-06T15:02:26.014Z,5.19
2022-12-06T15:04:54.800Z,5.15
2022-12-06T15:07:41.463Z,5.10
2022-12-06T15:10:16.644Z,5.06
2022-12-06T15:12:59.696Z,5.02
2022-12-06T15:15:33.076Z,4.97
2022-12-06T15:18:26.427Z,4.94
2022-12-06T15:20:56.031Z,4.90
2022-12-06T15:23:38.581Z,4.85
2022-12-06T15:26:12.041Z,4.80
2022-12-06T15:28:41.032Z,4.77
2022-12-06T15:31:30.293Z,4.75
2022-12-06T15:33:59.090Z,4.71
2022-12-06T15:36:33.377Z,4.69
2022-12-06T15:39:02.090Z,4.67
2022-12-06T15:41:30.987Z,4.65
2022-12-06T15:43:59.671Z,4.64
2022-12-06T15:46:29.988Z,4.59
2022-12-06T15:48:58.888Z,4.53
2022-12-06T15:51:29.145Z,4.46
2022-12-06T15:53:58.401Z,4.39
2022-12-06T15:56:30.673Z,4.30
2022-12-06T15:58:59.663Z,4.22
2022-12-06T16:01:33.183Z,4.15
2022-12-06T16:04:01.760Z,4.05
2022-12-06T16:06:30.534Z,3.93
2022-12-06T16:08:59.735Z,3.83
2022-12-06T16:11:28.416Z,3.78
2022-12-06T16:13:57.000Z,3.74
2022-12-06T16:16:26.098Z,3.73
2022-12-06T16:18:55.597Z,3.73
2022-12-06T16:21:33.394Z,3.70
2022-12-06T16:24:19.207Z,3.68
2022-12-06T16:26:48.388Z,3.68
2022-12-06T16:29:25.250Z,3.67
2022-12-06T16:31:54.832Z,3.67
2022-12-06T16:34:23.452Z,3.67
2022-12-06T16:36:56.368Z,3.69
2022-12-06T16:39:25.121Z,3.70
2022-12-06T16:41:53.905Z,3.71
2022-12-06T16:44:23.106Z,3.72
2022-12-06T16:46:52.372Z,3.75
2022-12-06T16:52:12.616Z,3.83
2022-12-06T16:54:41.999Z,3.87
2022-12-06T16:57:15.216Z,3.91
2022-12-06T16:59:43.815Z,3.93
2022-12-06T17:02:28.077Z,3.95
2022-12-06T17:05:06.666Z,3.97
2022-12-06T17:07:37.012Z,3.98
2022-12-06T17:10:09.048Z,4.00
2022-12-06T17:12:38.550Z,4.02
2022-12-06T17:15:07.568Z,4.03
2022-12-06T17:17:36.239Z,4.04
2022-12-06T17:20:08.209Z,4.06
2022-12-06T17:22:37.700Z,4.06
2022-12-06T17:25:06.995Z,4.07
2022-12-06T17:27:35.987Z,4.06
2022-12-06T17:30:12.557Z,4.06
2022-12-06T17:32:41.145Z,4.06
2022-12-06T17:35:10.027Z,4.07
2022-12-06T17:37:41.070Z,4.06
2022-12-06T17:40:10.476Z,4.06
2022-12-06T17:42:57.695Z,4.05
2022-12-06T17:45:26.282Z,4.06
2022-12-06T17:47:55.065Z,4.05
2022-12-06T17:50:23.759Z,4.04
2022-12-06T17:52:52.339Z,4.03
2022-12-06T17:55:20.811Z,4.05
2022-12-06T17:57:49.606Z,4.15
2022-12-06T18:00:19.003Z,4.15
2022-12-06T18:02:49.027Z,4.14
2022-12-06T18:05:18.014Z,4.12
2022-12-06T18:07:47.135Z,4.09
2022-12-06T18:10:23.986Z,4.10
2022-12-06T18:12:53.189Z,4.11
2022-12-06T18:15:41.124Z,4.11
2022-12-06T18:18:09.703Z,4.08
2022-12-06T18:20:38.797Z,4.06
2022-12-06T18:23:07.483Z,4.03
2022-12-06T18:25:42.519Z,4.02
2022-12-06T18:28:13.250Z,4.01
2022-12-06T18:30:41.730Z,4.04
2022-12-06T18:33:16.211Z,4.05
2022-12-06T18:35:52.437Z,4.02
2022-12-06T18:38:21.204Z,4.10
2022-12-06T18:40:49.787Z,4.12
2022-12-06T18:43:18.368Z,4.13
2022-12-06T18:45:47.013Z,4.15
2022-12-06T18:48:15.744Z,4.15
2022-12-06T18:50:44.534Z,4.14
2022-12-06T18:53:13.315Z,4.11
2022-12-06T18:55:42.924Z,4.08
2022-12-06T18:58:11.713Z,4.06
2022-12-06T19:00:44.577Z,4.05
2022-12-06T19:03:14.100Z,4.03
2022-12-06T19:06:01.939Z,3.99
2022-12-06T19:08:31.441Z,3.98
2022-12-06T19:11:03.094Z,4.00
2022-12-06T19:13:31.783Z,4.01
2022-12-06T19:16:04.977Z,4.02
2022-12-06T19:18:35.600Z,4.02
2022-12-06T19:21:04.186Z,4.02
2022-12-06T19:23:32.769Z,4.04
2022-12-06T19:26:03.194Z,4.03
2022-12-06T19:28:33.474Z,4.01
2022-12-06T19:31:04.984Z,4.02
2022-12-06T19:33:39.602Z,4.04
2022-12-06T19:36:12.341Z,4.05
2022-12-06T19:38:41.265Z,4.06
2022-12-06T19:41:13.822Z,4.04
2022-12-06T19:44:01.575Z,4.01
2022-12-06T19:46:31.414Z,4.00
2022-12-06T19:49:05.605Z,4.01
2022-12-06T19:51:38.894Z,4.01
2022-12-06T19:54:08.299Z,3.99
2022-12-06T19:56:38.195Z,3.98
2022-12-06T19:59:12.936Z,3.97
2022-12-06T20:01:44.709Z,3.95
2022-12-06T20:04:19.317Z,3.95
2022-12-06T20:06:48.010Z,3.96
2022-12-06T20:09:17.561Z,3.97
2022-12-06T20:12:04.087Z,3.98
2022-12-06T20:14:53.690Z,3.97
2022-12-06T20:17:24.015Z,3.96
2022-12-06T20:19:52.601Z,3.94
2022-12-06T20:22:23.034Z,3.92
2022-12-06T20:24:51.826Z,3.87
2022-12-06T20:27:40.364Z,3.86
2022-12-06T20:30:09.886Z,3.85
2022-12-06T20:32:38.451Z,3.85
2022-12-06T20:35:07.549Z,3.85
2022-12-06T20:37:36.133Z,3.86
2022-12-06T20:40:05.330Z,3.86
2022-12-06T20:42:34.940Z,3.87
2022-12-06T20:45:03.938Z,3.88
2022-12-06T20:47:32.618Z,3.89
2022-12-06T20:50:01.517Z,3.88
2022-12-06T20:52:30.698Z,3.89
2022-12-06T20:54:59.181Z,3.87
2022-12-06T20:57:27.766Z,3.87
2022-12-06T20:59:56.452Z,3.85
2022-12-06T21:02:25.043Z,3.84
2022-12-06T21:04:54.647Z,3.82
2022-12-06T21:07:24.044Z,3.80
2022-12-06T21:09:52.632Z,3.80
2022-12-06T21:12:22.643Z,3.80
2022-12-06T21:14:51.328Z,3.81
2022-12-06T21:17:19.835Z,3.81
2022-12-06T21:19:48.594Z,3.82
2022-12-06T21:22:17.483Z,3.83
2022-12-06T21:24:46.378Z,3.83
2022-12-06T21:27:15.171Z,3.83
2022-12-06T21:29:43.867Z,3.81
2022-12-06T21:32:12.531Z,3.78
2022-12-06T21:34:46.249Z,3.77
2022-12-06T21:37:15.438Z,3.76
2022-12-06T21:39:47.512Z,3.76
2022-12-06T21:42:16.090Z,3.76
2022-12-06T21:44:44.879Z,3.77
2022-12-06T21:47:13.666Z,3.79
2022-12-06T21:49:42.760Z,3.81
2022-12-06T21:52:11.749Z,3.84
2022-12-06T21:54:40.230Z,3.85
2022-12-06T21:57:08.814Z,3.85
2022-12-06T21:59:37.702Z,3.83
2022-12-06T22:02:07.327Z,3.81
2022-12-06T22:04:35.893Z,3.80
2022-12-06T22:07:04.584Z,3.79
2022-12-06T22:09:33.849Z,3.80
2022-12-06T22:12:02.568Z,3.81
2022-12-06T22:14:31.658Z,3.79
2022-12-06T22:17:00.563Z,3.79
2022-12-06T22:19:29.354Z,3.77
2022-12-06T22:21:58.950Z,3.77
2022-12-06T22:24:27.961Z,3.74
2022-12-06T22:26:57.039Z,3.70
2022-12-06T22:29:26.132Z,3.67
2022-12-06T22:31:54.998Z,3.64
2022-12-06T22:34:25.247Z,3.63
2022-12-06T22:36:54.134Z,3.64
2022-12-06T22:39:22.920Z,3.63
2022-12-06T22:41:54.855Z,3.66
2022-12-06T22:44:24.393Z,3.67
2022-12-06T22:46:53.437Z,3.67
2022-12-06T22:49:22.885Z,3.67
2022-12-06T22:51:52.080Z,3.65
2022-12-06T22:54:21.225Z,3.64
2022-12-06T22:56:50.175Z,3.65
2022-12-06T22:59:21.110Z,3.66
2022-12-06T23:01:49.901Z,3.67
2022-12-06T23:04:19.113Z,3.68
2022-12-06T23:06:48.202Z,3.67
2022-12-06T23:09:17.564Z,3.68
2022-12-06T23:11:46.591Z,3.69
2022-12-06T23:14:16.344Z,3.71
2022-12-06T23:16:45.827Z,3.72
2022-12-06T23:19:15.570Z,3.72
2022-12-06T23:21:44.611Z,3.72
2022-12-06T23:24:15.618Z,3.73
2022-12-06T23:26:49.720Z,3.72
2022-12-06T23:29:21.765Z,3.71
2022-12-06T23:31:51.204Z,3.69
2022-12-06T23:34:26.939Z,3.62
2022-12-06T23:36:57.516Z,3.57
2022-12-06T23:39:27.626Z,3.55
2022-12-06T23:41:57.345Z,3.56
2022-12-06T23:44:26.653Z,3.56
2022-12-06T23:46:56.914Z,3.57
2022-12-06T23:49:25.879Z,3.59
2022-12-06T23:51:55.262Z,3.59
2022-12-06T23:54:25.025Z,3.60
2022-12-06T23:56:55.294Z,3.61
2022-12-06T23:59:24.679Z,3.62
